sensor_id;sensor_type;location;lat;lon;timestamp;P1;durP1;ratioP1;P2;durP2;ratioP2
483;SDS011;228;48.922;12.198;2024-01-11T05:17:06;46.67;;;21.30;;
483;SDS011;228;48.922;12.198;2024-01-11T05:19:33;53.33;;;23.03;;
483;SDS011;228;48.922;12.198;2024-01-11T05:21:59;51.37;;;22.63;;
483;SDS011;228;48.922;12.198;2024-01-11T05:24:25;46.03;;;21.77;;
483;SDS011;228;48.922;12.198;2024-01-11T05:26:51;46.37;;;22.43;;
483;SDS011;228;48.922;12.198;2024-01-11T05:29:17;40.40;;;21.33;;
483;SDS011;228;48.922;12.198;2024-01-11T05:31:44;49.57;;;20.97;;
483;SDS011;228;48.922;12.198;2024-01-11T05:34:10;54.93;;;23.80;;
483;SDS011;228;48.922;12.198;2024-01-11T05:36:38;49.30;;;23.00;;
483;SDS011;228;48.922;12.198;2024-01-11T05:39:04;53.27;;;24.57;;
483;SDS011;228;48.922;12.198;2024-01-11T05:41:30;52.50;;;23.57;;
483;SDS011;228;48.922;12.198;2024-01-11T05:43:57;43.43;;;22.20;;
483;SDS011;228;48.922;12.198;2024-01-11T05:46:23;49.90;;;22.53;;
483;SDS011;228;48.922;12.198;2024-01-11T05:48:49;49.17;;;22.53;;
483;SDS011;228;48.922;12.198;2024-01-11T05:51:15;49.57;;;23.03;;
483;SDS011;228;48.922;12.198;2024-01-11T05:53:41;53.07;;;22.63;;
483;SDS011;228;48.922;12.198;2024-01-11T05:56:08;47.27;;;21.47;;
483;SDS011;228;48.922;12.198;2024-01-11T05:58:35;52.93;;;22.97;;
483;SDS011;228;48.922;12.198;2024-01-11T06:01:04;45.90;;;20.43;;
483;SDS011;228;48.922;12.198;2024-01-11T06:03:31;52.40;;;21.70;;
483;SDS011;228;48.922;12.198;2024-01-11T06:06:00;46.27;;;21.27;;
483;SDS011;228;48.922;12.198;2024-01-11T06:08:28;46.53;;;21.70;;
483;SDS011;228;48.922;12.198;2024-01-11T06:10:56;49.13;;;21.03;;
483;SDS011;228;48.922;12.198;2024-01-11T06:13:24;53.30;;;22.23;;
483;SDS011;228;48.922;12.198;2024-01-11T06:15:51;46.80;;;22.10;;
483;SDS011;228;48.922;12.198;2024-01-11T06:18:18;52.10;;;23.17;;
483;SDS011;228;48.922;12.198;2024-01-11T06:20:44;52.17;;;21.90;;
483;SDS011;228;48.922;12.198;2024-01-11T06:23:10;45.43;;;21.60;;
483;SDS011;228;48.922;12.198;2024-01-11T06:25:36;44.10;;;20.27;;
483;SDS011;228;48.922;12.198;2024-01-11T06:28:03;48.13;;;21.67;;
483;SDS011;228;48.922;12.198;2024-01-11T06:30:32;45.67;;;21.03;;
483;SDS011;228;48.922;12.198;2024-01-11T06:32:58;44.13;;;19.20;;
483;SDS011;228;48.922;12.198;2024-01-11T06:35:24;43.40;;;20.37;;
483;SDS011;228;48.922;12.198;2024-01-11T06:37:50;46.83;;;22.30;;
483;SDS011;228;48.922;12.198;2024-01-11T06:42:46;44.40;;;20.77;;
483;SDS011;228;48.922;12.198;2024-01-11T06:45:12;46.57;;;20.23;;
483;SDS011;228;48.922;12.198;2024-01-11T06:47:39;38.40;;;19.03;;
483;SDS011;228;48.922;12.198;2024-01-11T06:50:05;47.27;;;21.13;;
483;SDS011;228;48.922;12.198;2024-01-11T06:52:35;41.80;;;18.90;;
483;SDS011;228;48.922;12.198;2024-01-11T06:55:01;42.43;;;19.23;;
483;SDS011;228;48.922;12.198;2024-01-11T06:57:27;44.10;;;20.53;;
483;SDS011;228;48.922;12.198;2024-01-11T06:59:53;49.60;;;21.13;;
483;SDS011;228;48.922;12.198;2024-01-11T07:02:20;43.20;;;21.07;;
483;SDS011;228;48.922;12.198;2024-01-11T07:04:46;46.60;;;20.83;;
483;SDS011;228;48.922;12.198;2024-01-11T07:07:13;45.33;;;20.53;;
483;SDS011;228;48.922;12.198;2024-01-11T07:09:39;40.80;;;19.63;;
483;SDS011;228;48.922;12.198;2024-01-11T07:12:07;44.50;;;22.43;;
483;SDS011;228;48.922;12.198;2024-01-11T07:14:36;53.87;;;22.20;;
483;SDS011;228;48.922;12.198;2024-01-11T07:17:02;50.97;;;22.30;;
483;SDS011;228;48.922;12.198;2024-01-11T07:19:29;46.73;;;22.53;;
483;SDS011;228;48.922;12.198;2024-01-11T07:21:55;47.53;;;21.77;;
483;SDS011;228;48.922;12.198;2024-01-11T07:24:27;52.53;;;23.13;;
483;SDS011;228;48.922;12.198;2024-01-11T07:27:04;55.37;;;23.87;;
483;SDS011;228;48.922;12.198;2024-01-11T07:29:32;55.80;;;23.03;;
483;SDS011;228;48.922;12.198;2024-01-11T07:32:01;55.83;;;23.30;;
483;SDS011;228;48.922;12.198;2024-01-11T07:34:29;49.20;;;23.37;;
483;SDS011;228;48.922;12.198;2024-01-11T07:36:55;49.20;;;22.47;;
483;SDS011;228;48.922;12.198;2024-01-11T07:39:23;44.27;;;22.43;;
483;SDS011;228;48.922;12.198;2024-01-11T07:41:49;51.57;;;24.07;;
483;SDS011;228;48.922;12.198;2024-01-11T07:44:18;50.70;;;23.97;;
483;SDS011;228;48.922;12.198;2024-01-11T07:46:46;47.47;;;21.70;;
483;SDS011;228;48.922;12.198;2024-01-11T07:49:12;59.97;;;27.57;;
483;SDS011;228;48.922;12.198;2024-01-11T07:51:38;50.37;;;24.33;;
483;SDS011;228;48.922;12.198;2024-01-11T07:54:04;56.70;;;24.00;;
483;SDS011;228;48.922;12.198;2024-01-11T07:56:30;52.20;;;24.20;;
483;SDS011;228;48.922;12.198;2024-01-11T07:58:56;45.83;;;22.93;;
483;SDS011;228;48.922;12.198;2024-01-11T08:01:23;54.67;;;26.10;;
483;SDS011;228;48.922;12.198;2024-01-11T08:03:49;44.80;;;22.40;;
483;SDS011;228;48.922;12.198;2024-01-11T08:06:17;50.73;;;24.60;;
483;SDS011;228;48.922;12.198;2024-01-11T08:08:43;49.23;;;23.80;;
483;SDS011;228;48.922;12.198;2024-01-11T08:11:13;43.83;;;21.33;;
483;SDS011;228;48.922;12.198;2024-01-11T08:13:39;49.47;;;22.93;;
483;SDS011;228;48.922;12.198;2024-01-11T08:16:05;52.93;;;29.73;;
483;SDS011;228;48.922;12.198;2024-01-11T08:18:35;56.17;;;29.17;;
483;SDS011;228;48.922;12.198;2024-01-11T08:21:01;45.73;;;22.00;;
483;SDS011;228;48.922;12.198;2024-01-11T08:23:28;41.00;;;20.73;;
483;SDS011;228;48.922;12.198;2024-01-11T08:25:54;46.27;;;22.83;;
483;SDS011;228;48.922;12.198;2024-01-11T08:28:20;49.10;;;23.43;;
483;SDS011;228;48.922;12.198;2024-01-11T08:30:48;44.33;;;20.73;;
483;SDS011;228;48.922;12.198;2024-01-11T08:33:14;43.97;;;22.53;;
483;SDS011;228;48.922;12.198;2024-01-11T08:35:42;42.60;;;22.60;;
483;SDS011;228;48.922;12.198;2024-01-11T08:38:08;42.40;;;21.93;;
483;SDS011;228;48.922;12.198;2024-01-11T08:40:34;46.60;;;21.13;;
483;SDS011;228;48.922;12.198;2024-01-11T08:43:01;45.20;;;21.70;;
483;SDS011;228;48.922;12.198;2024-01-11T08:45:29;46.80;;;22.57;;
483;SDS011;228;48.922;12.198;2024-01-11T08:47:56;48.87;;;23.37;;
483;SDS011;228;48.922;12.198;2024-01-11T08:50:23;45.40;;;22.50;;
483;SDS011;228;48.922;12.198;2024-01-11T08:52:50;45.63;;;22.70;;
483;SDS011;228;48.922;12.198;2024-01-11T08:55:16;48.77;;;23.13;;
483;SDS011;228;48.922;12.198;2024-01-11T09:03:42;53.83;;;26.43;;
483;SDS011;228;48.922;12.198;2024-01-11T09:06:08;49.47;;;23.67;;
483;SDS011;228;48.922;12.198;2024-01-11T09:08:35;47.40;;;24.40;;
483;SDS011;228;48.922;12.198;2024-01-11T09:11:01;44.53;;;23.03;;
483;SDS011;228;48.922;12.198;2024-01-11T09:13:29;44.87;;;22.37;;
483;SDS011;228;48.922;12.198;2024-01-11T09:15:57;45.40;;;22.83;;
483;SDS011;228;48.922;12.198;2024-01-11T09:18:27;45.97;;;23.10;;
483;SDS011;228;48.922;12.198;2024-01-11T09:20:57;48.80;;;24.20;;
483;SDS011;228;48.922;12.198;2024-01-11T09:23:23;44.97;;;24.30;;
483;SDS011;228;48.922;12.198;2024-01-11T09:25:50;46.90;;;24.77;;
483;SDS011;228;48.922;12.198;2024-01-11T09:28:38;45.20;;;21.57;;
483;SDS011;228;48.922;12.198;2024-01-11T09:31:06;41.33;;;21.60;;
483;SDS011;228;48.922;12.198;2024-01-11T09:33:32;46.60;;;22.37;;
483;SDS011;228;48.922;12.198;2024-01-11T09:35:59;42.97;;;22.17;;
483;SDS011;228;48.922;12.198;2024-01-11T09:38:30;43.30;;;21.97;;
483;SDS011;228;48.922;12.198;2024-01-11T09:41:03;45.97;;;23.33;;
483;SDS011;228;48.922;12.198;2024-01-11T09:43:34;47.87;;;23.97;;
483;SDS011;228;48.922;12.198;2024-01-11T09:46:05;38.67;;;21.97;;
483;SDS011;228;48.922;12.198;2024-01-11T09:48:35;44.60;;;22.63;;
483;SDS011;228;48.922;12.198;2024-01-11T09:51:10;46.00;;;23.43;;
483;SDS011;228;48.922;12.198;2024-01-11T09:53:45;42.03;;;22.73;;
483;SDS011;228;48.922;12.198;2024-01-11T09:56:12;44.77;;;23.40;;
483;SDS011;228;48.922;12.198;2024-01-11T09:58:39;42.30;;;21.87;;
483;SDS011;228;48.922;12.198;2024-01-11T10:01:15;40.97;;;21.83;;
483;SDS011;228;48.922;12.198;2024-01-11T10:03:43;45.70;;;23.03;;
483;SDS011;228;48.922;12.198;2024-01-11T10:06:12;49.40;;;30.07;;
483;SDS011;228;48.922;12.198;2024-01-11T10:08:43;41.13;;;24.27;;
483;SDS011;228;48.922;12.198;2024-01-11T10:11:10;44.67;;;23.77;;
483;SDS011;228;48.922;12.198;2024-01-11T10:13:36;46.63;;;24.10;;
483;SDS011;228;48.922;12.198;2024-01-11T10:16:05;41.67;;;21.57;;
483;SDS011;228;48.922;12.198;2024-01-11T10:18:36;42.73;;;21.93;;
483;SDS011;228;48.922;12.198;2024-01-11T10:21:04;44.20;;;24.47;;
483;SDS011;228;48.922;12.198;2024-01-11T10:23:33;43.87;;;22.07;;
483;SDS011;228;48.922;12.198;2024-01-11T10:25:59;46.43;;;22.90;;
483;SDS011;228;48.922;12.198;2024-01-11T10:28:26;42.33;;;23.30;;
483;SDS011;228;48.922;12.198;2024-01-11T10:30:54;44.27;;;21.87;;
483;SDS011;228;48.922;12.198;2024-01-11T10:33:21;44.70;;;22.43;;
483;SDS011;228;48.922;12.198;2024-01-11T10:35:49;41.20;;;23.77;;
483;SDS011;228;48.922;12.198;2024-01-11T10:38:15;41.10;;;21.93;;
483;SDS011;228;48.922;12.198;2024-01-11T10:40:44;43.63;;;23.23;;
483;SDS011;228;48.922;12.198;2024-01-11T10:43:11;48.50;;;23.90;;
483;SDS011;228;48.922;12.198;2024-01-11T10:45:40;41.77;;;23.37;;
483;SDS011;228;48.922;12.198;2024-01-11T10:48:13;46.07;;;24.07;;
483;SDS011;228;48.922;12.198;2024-01-11T10:50:42;42.67;;;22.40;;
483;SDS011;228;48.922;12.198;2024-01-11T10:56:01;41.77;;;22.57;;
483;SDS011;228;48.922;12.198;2024-01-11T10:58:30;43.03;;;21.40;;
483;SDS011;228;48.922;12.198;2024-01-11T11:01:00;43.43;;;21.73;;
483;SDS011;228;48.922;12.198;2024-01-11T11:03:30;47.17;;;23.17;;
483;SDS011;228;48.922;12.198;2024-01-11T11:06:00;39.70;;;20.90;;
483;SDS011;228;48.922;12.198;2024-01-11T11:08:27;36.73;;;20.57;;
483;SDS011;228;48.922;12.198;2024-01-11T11:11:15;39.83;;;22.50;;
483;SDS011;228;48.922;12.198;2024-01-11T11:13:47;41.67;;;21.30;;
483;SDS011;228;48.922;12.198;2024-01-11T11:16:16;41.73;;;21.17;;
483;SDS011;228;48.922;12.198;2024-01-11T11:18:43;38.90;;;21.77;;
483;SDS011;228;48.922;12.198;2024-01-11T11:21:09;46.17;;;22.67;;
483;SDS011;228;48.922;12.198;2024-01-11T11:23:36;42.03;;;21.90;;
483;SDS011;228;48.922;12.198;2024-01-11T11:26:05;42.90;;;23.13;;
483;SDS011;228;48.922;12.198;2024-01-11T11:28:34;41.53;;;21.40;;
483;SDS011;228;48.922;12.198;2024-01-11T11:31:02;45.07;;;21.33;;
483;SDS011;228;48.922;12.198;2024-01-11T11:33:28;39.77;;;23.13;;
483;SDS011;228;48.922;12.198;2024-01-11T11:35:59;36.07;;;21.23;;
483;SDS011;228;48.922;12.198;2024-01-11T11:38:26;37.93;;;22.30;;
483;SDS011;228;48.922;12.198;2024-01-11T11:40:54;36.17;;;21.77;;
483;SDS011;228;48.922;12.198;2024-01-11T11:43:23;37.50;;;22.57;;
483;SDS011;228;48.922;12.198;2024-01-11T11:45:50;36.17;;;21.97;;
483;SDS011;228;48.922;12.198;2024-01-11T11:53:38;37.80;;;24.03;;
483;SDS011;228;48.922;12.198;2024-01-11T11:56:07;36.80;;;22.93;;
483;SDS011;228;48.922;12.198;2024-01-11T11:58:37;37.57;;;24.17;;
483;SDS011;228;48.922;12.198;2024-01-11T12:01:08;40.27;;;24.80;;
483;SDS011;228;48.922;12.198;2024-01-11T12:03:35;39.30;;;25.53;;
483;SDS011;228;48.922;12.198;2024-01-11T12:06:07;40.00;;;25.50;;
483;SDS011;228;48.922;12.198;2024-01-11T12:08:37;38.30;;;26.47;;
483;SDS011;228;48.922;12.198;2024-01-11T12:11:08;37.67;;;25.73;;
483;SDS011;228;48.922;12.198;2024-01-11T12:13:34;37.73;;;25.07;;
483;SDS011;228;48.922;12.198;2024-01-11T12:16:01;36.13;;;25.10;;
483;SDS011;228;48.922;12.198;2024-01-11T12:18:27;38.43;;;26.27;;
483;SDS011;228;48.922;12.198;2024-01-11T12:20:53;39.03;;;25.73;;
483;SDS011;228;48.922;12.198;2024-01-11T12:23:19;39.43;;;26.03;;
483;SDS011;228;48.922;12.198;2024-01-11T12:25:45;41.23;;;26.03;;
483;SDS011;228;48.922;12.198;2024-01-11T12:28:12;39.47;;;27.67;;
483;SDS011;228;48.922;12.198;2024-01-11T12:30:39;36.60;;;25.93;;
483;SDS011;228;48.922;12.198;2024-01-11T12:33:05;37.20;;;26.17;;
483;SDS011;228;48.922;12.198;2024-01-11T12:35:32;34.40;;;25.73;;
483;SDS011;228;48.922;12.198;2024-01-11T12:37:58;39.33;;;25.73;;
483;SDS011;228;48.922;12.198;2024-01-11T12:40:37;40.67;;;26.97;;
483;SDS011;228;48.922;12.198;2024-01-11T12:43:04;37.83;;;24.27;;
483;SDS011;228;48.922;12.198;2024-01-11T12:45:31;39.93;;;27.00;;
483;SDS011;228;48.922;12.198;2024-01-11T12:47:58;39.17;;;26.13;;
483;SDS011;228;48.922;12.198;2024-01-11T12:50:25;40.67;;;25.87;;
483;SDS011;228;48.922;12.198;2024-01-11T12:55:48;38.07;;;25.90;;
483;SDS011;228;48.922;12.198;2024-01-11T12:58:19;37.60;;;26.07;;
483;SDS011;228;48.922;12.198;2024-01-11T13:00:50;35.17;;;24.90;;
483;SDS011;228;48.922;12.198;2024-01-11T13:03:17;34.90;;;24.27;;
483;SDS011;228;48.922;12.198;2024-01-11T13:05:45;37.27;;;25.57;;
483;SDS011;228;48.922;12.198;2024-01-11T13:08:12;34.90;;;24.17;;
483;SDS011;228;48.922;12.198;2024-01-11T13:10:38;34.77;;;25.37;;
483;SDS011;228;48.922;12.198;2024-01-11T13:13:04;35.70;;;24.83;;
483;SDS011;228;48.922;12.198;2024-01-11T13:15:33;37.00;;;25.80;;
483;SDS011;228;48.922;12.198;2024-01-11T13:18:01;37.93;;;26.03;;
483;SDS011;228;48.922;12.198;2024-01-11T13:20:28;39.73;;;27.63;;
483;SDS011;228;48.922;12.198;2024-01-11T13:25:46;34.00;;;24.23;;
483;SDS011;228;48.922;12.198;2024-01-11T13:28:14;34.80;;;24.80;;
483;SDS011;228;48.922;12.198;2024-01-11T13:30:41;35.80;;;25.80;;
483;SDS011;228;48.922;12.198;2024-01-11T13:33:09;35.97;;;25.67;;
483;SDS011;228;48.922;12.198;2024-01-11T13:35:40;37.93;;;25.43;;
483;SDS011;228;48.922;12.198;2024-01-11T13:38:08;38.10;;;26.77;;
483;SDS011;228;48.922;12.198;2024-01-11T13:40:34;34.37;;;24.63;;
483;SDS011;228;48.922;12.198;2024-01-11T13:43:00;36.23;;;25.00;;
483;SDS011;228;48.922;12.198;2024-01-11T13:45:28;41.20;;;25.00;;
483;SDS011;228;48.922;12.198;2024-01-11T13:47:55;33.83;;;23.07;;
483;SDS011;228;48.922;12.198;2024-01-11T13:50:21;35.77;;;25.00;;
483;SDS011;228;48.922;12.198;2024-01-11T13:52:52;38.03;;;24.70;;
483;SDS011;228;48.922;12.198;2024-01-11T13:55:18;35.93;;;24.97;;
483;SDS011;228;48.922;12.198;2024-01-11T13:57:46;39.27;;;25.57;;
483;SDS011;228;48.922;12.198;2024-01-11T14:00:13;36.90;;;24.67;;
483;SDS011;228;48.922;12.198;2024-01-11T14:02:40;40.33;;;25.50;;
483;SDS011;228;48.922;12.198;2024-01-11T14:05:06;36.33;;;23.87;;
483;SDS011;228;48.922;12.198;2024-01-11T14:07:37;39.87;;;25.03;;
483;SDS011;228;48.922;12.198;2024-01-11T14:10:05;38.17;;;24.50;;
483;SDS011;228;48.922;12.198;2024-01-11T14:12:36;36.57;;;24.33;;
483;SDS011;228;48.922;12.198;2024-01-11T14:15:03;44.07;;;28.60;;
483;SDS011;228;48.922;12.198;2024-01-11T14:17:31;47.97;;;30.73;;
483;SDS011;228;48.922;12.198;2024-01-11T14:19:59;42.63;;;26.53;;
483;SDS011;228;48.922;12.198;2024-01-11T14:22:26;47.27;;;27.43;;
483;SDS011;228;48.922;12.198;2024-01-11T14:24:52;37.83;;;24.60;;
483;SDS011;228;48.922;12.198;2024-01-11T14:27:19;38.57;;;24.37;;
483;SDS011;228;48.922;12.198;2024-01-11T14:29:46;39.13;;;25.50;;
483;SDS011;228;48.922;12.198;2024-01-11T14:32:13;39.37;;;25.60;;
483;SDS011;228;48.922;12.198;2024-01-11T14:34:43;38.33;;;24.87;;
483;SDS011;228;48.922;12.198;2024-01-11T14:37:10;39.47;;;23.73;;
483;SDS011;228;48.922;12.198;2024-01-11T14:39:37;38.43;;;24.33;;
483;SDS011;228;48.922;12.198;2024-01-11T14:42:03;39.77;;;25.23;;
483;SDS011;228;48.922;12.198;2024-01-11T14:44:30;37.03;;;24.90;;
483;SDS011;228;48.922;12.198;2024-01-11T14:46:56;39.60;;;23.60;;
483;SDS011;228;48.922;12.198;2024-01-11T14:49:22;42.87;;;24.63;;
483;SDS011;228;48.922;12.198;2024-01-11T14:51:50;41.77;;;23.87;;
483;SDS011;228;48.922;12.198;2024-01-11T14:54:16;41.67;;;23.27;;
483;SDS011;228;48.922;12.198;2024-01-11T14:56:44;42.27;;;23.13;;
483;SDS011;228;48.922;12.198;2024-01-11T14:59:10;38.93;;;22.13;;
483;SDS011;228;48.922;12.198;2024-01-11T15:01:36;39.97;;;23.80;;
483;SDS011;228;48.922;12.198;2024-01-11T15:04:02;38.37;;;21.37;;
483;SDS011;228;48.922;12.198;2024-01-11T15:06:28;35.67;;;21.17;;
483;SDS011;228;48.922;12.198;2024-01-11T15:08:53;40.33;;;20.80;;
483;SDS011;228;48.922;12.198;2024-01-11T15:11:19;35.17;;;19.87;;
483;SDS011;228;48.922;12.198;2024-01-11T15:13:45;37.43;;;21.10;;
483;SDS011;228;48.922;12.198;2024-01-11T15:16:11;36.63;;;20.20;;
483;SDS011;228;48.922;12.198;2024-01-11T15:18:37;36.07;;;20.13;;
483;SDS011;228;48.922;12.198;2024-01-11T15:21:04;39.30;;;19.97;;
483;SDS011;228;48.922;12.198;2024-01-11T15:23:30;34.93;;;20.23;;
483;SDS011;228;48.922;12.198;2024-01-11T15:25:57;38.53;;;20.93;;
483;SDS011;228;48.922;12.198;2024-01-11T15:28:23;40.10;;;21.30;;
483;SDS011;228;48.922;12.198;2024-01-11T15:30:49;38.17;;;21.10;;
483;SDS011;228;48.922;12.198;2024-01-11T15:33:15;45.17;;;22.53;;
483;SDS011;228;48.922;12.198;2024-01-11T15:35:41;38.53;;;20.10;;
483;SDS011;228;48.922;12.198;2024-01-11T15:38:07;33.57;;;19.90;;
483;SDS011;228;48.922;12.198;2024-01-11T15:40:33;37.63;;;20.57;;
483;SDS011;228;48.922;12.198;2024-01-11T15:43:02;37.40;;;19.20;;
483;SDS011;228;48.922;12.198;2024-01-11T15:45:31;45.63;;;23.07;;
483;SDS011;228;48.922;12.198;2024-01-11T15:47:58;43.07;;;22.33;;
483;SDS011;228;48.922;12.198;2024-01-11T15:50:25;42.17;;;20.17;;
483;SDS011;228;48.922;12.198;2024-01-11T15:52:51;40.60;;;19.73;;
483;SDS011;228;48.922;12.198;2024-01-11T15:55:17;43.87;;;19.60;;
483;SDS011;228;48.922;12.198;2024-01-11T15:57:46;37.40;;;19.57;;
483;SDS011;228;48.922;12.198;2024-01-11T16:00:12;39.10;;;19.10;;
483;SDS011;228;48.922;12.198;2024-01-11T16:02:39;35.67;;;20.17;;
483;SDS011;228;48.922;12.198;2024-01-11T16:05:06;35.53;;;19.80;;
483;SDS011;228;48.922;12.198;2024-01-11T16:07:32;39.00;;;20.07;;
483;SDS011;228;48.922;12.198;2024-01-11T16:10:00;45.27;;;24.03;;
483;SDS011;228;48.922;12.198;2024-01-11T16:12:26;39.17;;;19.43;;
483;SDS011;228;48.922;12.198;2024-01-11T16:14:52;35.27;;;17.87;;
483;SDS011;228;48.922;12.198;2024-01-11T16:17:22;38.27;;;19.20;;
483;SDS011;228;48.922;12.198;2024-01-11T16:19:48;37.50;;;19.67;;
483;SDS011;228;48.922;12.198;2024-01-11T16:22:14;37.73;;;19.73;;
483;SDS011;228;48.922;12.198;2024-01-11T16:24:40;35.90;;;19.37;;
483;SDS011;228;48.922;12.198;2024-01-11T16:27:06;36.80;;;18.43;;
483;SDS011;228;48.922;12.198;2024-01-11T16:29:33;41.80;;;20.77;;
483;SDS011;228;48.922;12.198;2024-01-11T16:32:00;37.47;;;19.30;;
483;SDS011;228;48.922;12.198;2024-01-11T16:34:26;43.43;;;21.20;;
483;SDS011;228;48.922;12.198;2024-01-11T16:36:53;39.07;;;19.40;;
483;SDS011;228;48.922;12.198;2024-01-11T16:39:19;44.47;;;21.43;;
483;SDS011;228;48.922;12.198;2024-01-11T16:41:45;39.30;;;20.07;;
483;SDS011;228;48.922;12.198;2024-01-11T16:44:12;40.40;;;20.87;;
483;SDS011;228;48.922;12.198;2024-01-11T16:46:38;34.20;;;19.33;;
483;SDS011;228;48.922;12.198;2024-01-11T16:49:04;44.03;;;20.57;;
483;SDS011;228;48.922;12.198;2024-01-11T16:51:31;44.43;;;20.60;;
483;SDS011;228;48.922;12.198;2024-01-11T19:28:42;51.53;;;25.83;;
483;SDS011;228;48.922;12.198;2024-01-11T19:31:11;49.27;;;26.43;;
483;SDS011;228;48.922;12.198;2024-01-11T19:59:56;49.53;;;28.43;;
483;SDS011;228;48.922;12.198;2024-01-11T20:05:30;53.73;;;28.33;;
483;SDS011;228;48.922;12.198;2024-01-11T20:16:49;55.03;;;29.63;;
483;SDS011;228;48.922;12.198;2024-01-11T20:22:44;50.13;;;26.00;;
483;SDS011;228;48.922;12.198;2024-01-11T20:25:10;51.33;;;26.33;;
483;SDS011;228;48.922;12.198;2024-01-11T20:27:36;49.20;;;26.57;;
483;SDS011;228;48.922;12.198;2024-01-11T20:30:03;52.77;;;27.53;;
483;SDS011;228;48.922;12.198;2024-01-11T20:32:30;47.20;;;26.97;;
483;SDS011;228;48.922;12.198;2024-01-11T20:54:42;49.80;;;26.27;;
483;SDS011;228;48.922;12.198;2024-01-11T20:57:10;55.87;;;29.97;;
